Time;durP1;ratioP1;P1;durP2;ratioP2;P2;SDS_P1;SDS_P2;PMS_P1;PMS_P2;Temp;Humidity;BMP_temperature;BMP_pressure;BME280_temperature;BME280_humidity;BME280_pressure;Samples;Min_cycle;Max_cycle;Signal;HPM_P1;HPM_P2
2021/06/14 00:00:55;;;;;;;18.33;11.57;;;12.80;92.50;;;;;;2040203;29;20034;-69
2021/06/14 00:01:56;;;;;;;16.10;11.75;;;12.70;92.50;;;;;;2032560;29;20036;-70
2021/06/14 00:02:57;;;;;;;16.45;10.93;;;12.70;92.50;;;;;;2032440;29;20052;-70
2021/06/14 00:03:58;;;;;;;15.80;10.65;;;12.70;92.60;;;;;;2024463;29;20583;-70
2021/06/14 00:04:58;;;;;;;14.65;10.82;;;12.70;92.70;;;;;;2024103;29;20441;-71
2021/06/14 00:05:59;;;;;;;16.75;11.35;;;12.70;92.70;;;;;;2032284;29;20015;-69
2021/06/14 00:07:00;;;;;;;14.80;10.60;;;12.70;92.60;;;;;;2032088;29;20032;-69
2021/06/14 00:08:01;;;;;;;15.80;10.88;;;12.60;92.70;;;;;;2040307;29;20031;-71
2021/06/14 00:09:03;;;;;;;14.82;10.52;;;12.70;92.80;;;;;;2025503;29;20083;-72
2021/06/14 00:10:07;;;;;;;15.65;10.18;;;12.70;93.10;;;;;;2026583;29;20617;-71
2021/06/14 00:11:09;;;;;;;12.77;9.73;;;12.70;92.80;;;;;;2041877;29;20027;-70
2021/06/14 00:12:10;;;;;;;13.55;10.15;;;12.70;92.90;;;;;;2040396;29;20032;-69
2021/06/14 00:13:11;;;;;;;15.45;10.60;;;12.60;92.90;;;;;;2040174;29;20094;-69
2021/06/14 00:14:12;;;;;;;13.15;10.57;;;12.60;92.90;;;;;;2040444;29;20023;-69
2021/06/14 00:15:13;;;;;;;15.32;10.40;;;12.60;92.70;;;;;;2041429;29;20063;-69
2021/06/14 00:16:13;;;;;;;14.77;10.20;;;12.70;92.70;;;;;;2040032;29;20499;-70
2021/06/14 00:17:15;;;;;;;14.38;10.40;;;12.70;92.70;;;;;;2041528;29;20404;-71
2021/06/14 00:18:16;;;;;;;13.85;10.88;;;12.60;92.70;;;;;;2033930;29;20155;-70
2021/06/14 00:19:17;;;;;;;14.05;10.73;;;12.60;92.80;;;;;;2033556;29;20102;-71
2021/06/14 00:20:20;;;;;;;14.38;10.60;;;12.60;92.80;;;;;;2034462;29;20036;-71
2021/06/14 00:21:21;;;;;;;17.27;11.52;;;12.60;92.80;;;;;;2034649;29;20020;-70
2021/06/14 00:22:22;;;;;;;15.50;10.40;;;12.60;92.80;;;;;;2034162;29;20032;-71
2021/06/14 00:23:25;;;;;;;15.00;10.73;;;12.60;92.80;;;;;;2033039;29;20043;-69
2021/06/14 00:24:25;;;;;;;14.63;10.18;;;12.60;92.90;;;;;;2032175;29;20475;-69
2021/06/14 00:25:29;;;;;;;18.33;11.07;;;12.60;92.80;;;;;;2032052;29;20047;-69
2021/06/14 00:26:30;;;;;;;16.63;11.10;;;12.60;93.00;;;;;;2039935;29;20812;-69
2021/06/14 00:27:31;;;;;;;15.30;10.68;;;12.60;93.00;;;;;;2037404;29;20035;-69
2021/06/14 00:28:31;;;;;;;15.25;10.82;;;12.50;93.00;;;;;;2044739;29;20546;-70
2021/06/14 00:29:32;;;;;;;14.98;10.75;;;12.60;93.20;;;;;;2048032;29;20054;-69
2021/06/14 00:30:41;;;;;;;16.67;10.57;;;12.50;93.20;;;;;;2040159;29;20476;-69
2021/06/14 00:31:42;;;;;;;16.15;10.82;;;12.50;93.20;;;;;;2041343;29;20019;-69
2021/06/14 00:32:42;;;;;;;13.85;10.55;;;12.50;93.10;;;;;;2040140;29;20487;-71
2021/06/14 00:33:43;;;;;;;14.73;11.20;;;12.50;93.20;;;;;;2041634;29;20028;-71
2021/06/14 00:34:44;;;;;;;14.75;10.57;;;12.50;93.30;;;;;;2041743;29;20058;-70
2021/06/14 00:35:46;;;;;;;15.10;10.93;;;12.50;93.40;;;;;;2042043;29;20066;-70
2021/06/14 00:36:47;;;;;;;16.50;11.27;;;12.50;93.30;;;;;;2041556;29;20047;-71
2021/06/14 00:37:51;;;;;;;14.68;10.35;;;12.50;93.30;;;;;;2025533;29;20501;-69
2021/06/14 00:38:52;;;;;;;14.60;10.63;;;12.50;93.30;;;;;;2026045;29;20528;-70
2021/06/14 00:39:52;;;;;;;16.35;10.65;;;12.50;93.30;;;;;;2041042;29;20031;-70
2021/06/14 00:40:53;;;;;;;17.52;10.85;;;12.50;93.30;;;;;;2040737;29;20035;-71
2021/06/14 00:41:54;;;;;;;15.32;10.80;;;12.40;93.20;;;;;;2032433;29;20042;-69
2021/06/14 00:42:54;;;;;;;15.65;10.35;;;12.40;93.20;;;;;;2032576;29;20020;-70
2021/06/14 00:43:55;;;;;;;14.73;10.70;;;12.40;93.20;;;;;;2032470;29;20024;-69
2021/06/14 00:44:56;;;;;;;14.82;10.55;;;12.40;93.30;;;;;;2024062;29;20093;-69
2021/06/14 00:45:57;;;;;;;14.48;10.63;;;12.40;93.30;;;;;;2031941;29;20039;-70
2021/06/14 00:46:57;;;;;;;13.73;10.73;;;12.30;93.30;;;;;;2039894;29;20034;-70
2021/06/14 00:47:59;;;;;;;15.52;10.70;;;12.30;93.40;;;;;;2039943;29;20522;-72
2021/06/14 00:49:00;;;;;;;13.52;10.60;;;12.30;93.30;;;;;;2039916;29;20039;-70
2021/06/14 00:50:02;;;;;;;17.90;11.07;;;12.30;93.30;;;;;;2032192;29;20044;-69
2021/06/14 00:51:06;;;;;;;16.70;11.07;;;12.20;93.40;;;;;;2017518;29;20504;-70
2021/06/14 00:52:07;;;;;;;16.67;10.32;;;12.30;93.50;;;;;;2032580;29;20081;-70
2021/06/14 00:53:24;;;;;;;15.25;10.52;;;12.20;93.50;;;;;;2040734;29;20404;-70
2021/06/14 00:54:26;;;;;;;13.75;10.20;;;12.30;93.50;;;;;;2039901;29;20039;-69
2021/06/14 00:55:27;;;;;;;16.70;10.80;;;12.20;93.40;;;;;;2039773;29;20047;-70
2021/06/14 00:56:28;;;;;;;14.82;10.40;;;12.30;93.40;;;;;;2040318;29;20535;-69
2021/06/14 00:57:29;;;;;;;14.13;10.05;;;12.20;93.40;;;;;;2039867;29;20116;-71
2021/06/14 00:58:31;;;;;;;16.02;10.40;;;12.20;93.40;;;;;;2039926;29;20451;-70
2021/06/14 00:59:31;;;;;;;15.05;10.00;;;12.20;93.40;;;;;;2039639;29;20062;-69
2021/06/14 01:00:33;;;;;;;14.95;10.35;;;12.20;93.50;;;;;;2024382;29;20032;-70
2021/06/14 01:01:34;;;;;;;14.00;10.13;;;12.20;93.50;;;;;;2032025;29;20416;-69
2021/06/14 01:02:38;;;;;;;16.35;10.40;;;12.20;93.50;;;;;;2040380;29;20399;-70
2021/06/14 01:03:38;;;;;;;13.77;9.90;;;12.20;93.50;;;;;;2040518;29;20035;-70
2021/06/14 01:04:41;;;;;;;12.68;9.60;;;12.10;93.50;;;;;;2031575;29;20115;-70
2021/06/14 01:05:48;;;;;;;15.05;9.75;;;12.10;93.50;;;;;;2024149;29;20028;-69
2021/06/14 01:06:51;;;;;;;15.48;10.25;;;12.20;93.60;;;;;;2033078;29;20024;-70
2021/06/14 01:07:51;;;;;;;14.10;9.60;;;12.10;93.60;;;;;;2039602;29;20589;-70
2021/06/14 01:08:53;;;;;;;14.57;9.65;;;12.10;93.50;;;;;;2039909;29;20051;-69
2021/06/14 01:09:55;;;;;;;16.15;9.70;;;12.10;93.60;;;;;;2040643;29;20432;-70
2021/06/14 01:11:00;;;;;;;14.38;9.57;;;12.10;93.60;;;;;;2040585;29;20579;-72
2021/06/14 01:12:08;;;;;;;16.67;9.75;;;12.10;93.70;;;;;;2040468;29;20055;-69
2021/06/14 01:13:28;;;;;;;14.10;9.50;;;12.10;93.70;;;;;;2039910;29;20035;-70
2021/06/14 01:14:42;;;;;;;12.82;9.43;;;12.00;93.70;;;;;;2039439;29;20129;-71
2021/06/14 01:15:59;;;;;;;14.55;10.00;;;12.00;93.70;;;;;;2039668;29;20444;-70
2021/06/14 01:17:24;;;;;;;15.73;9.48;;;12.10;93.80;;;;;;2039918;29;20487;-71
2021/06/14 01:18:38;;;;;;;13.88;9.43;;;12.00;93.80;;;;;;2039830;29;20031;-69
2021/06/14 01:19:50;;;;;;;13.30;9.40;;;12.00;93.90;;;;;;2029845;29;20067;-72
2021/06/14 01:21:02;;;;;;;14.43;9.75;;;12.00;94.00;;;;;;2038281;29;20043;-71
2021/06/14 01:22:28;;;;;;;14.45;9.85;;;11.90;94.10;;;;;;2039730;29;20036;-70
2021/06/14 01:23:57;;;;;;;16.33;9.82;;;12.00;94.10;;;;;;2040247;29;20114;-72
2021/06/14 01:25:06;;;;;;;12.02;8.90;;;11.90;94.20;;;;;;2032370;29;20087;-71
2021/06/14 01:26:13;;;;;;;13.30;9.40;;;11.90;94.30;;;;;;2038913;29;20070;-70
2021/06/14 01:27:33;;;;;;;12.95;9.38;;;11.90;94.30;;;;;;2032740;29;20107;-71
2021/06/14 01:28:37;;;;;;;13.02;9.20;;;11.90;94.40;;;;;;2040291;29;20028;-70
2021/06/14 01:29:45;;;;;;;15.45;9.68;;;11.90;94.40;;;;;;2039726;29;20159;-69
2021/06/14 01:30:49;;;;;;;11.38;8.85;;;11.90;94.50;;;;;;2039742;29;20455;-70
2021/06/14 01:31:55;;;;;;;16.30;9.65;;;11.90;94.50;;;;;;2031850;29;20032;-70
2021/06/14 01:32:56;;;;;;;14.07;9.50;;;11.90;94.50;;;;;;2024387;29;20036;-69
2021/06/14 01:34:02;;;;;;;13.68;9.40;;;11.90;94.60;;;;;;2032561;29;20028;-70
2021/06/14 01:35:06;;;;;;;14.00;9.63;;;11.90;94.60;;;;;;2039251;29;20639;-70
2021/06/14 01:36:12;;;;;;;13.05;9.23;;;11.80;94.70;;;;;;2031802;29;20733;-69
2021/06/14 01:37:18;;;;;;;12.65;9.15;;;11.90;94.80;;;;;;2033088;29;20036;-70
2021/06/14 01:38:23;;;;;;;12.27;8.88;;;11.80;94.70;;;;;;2040051;29;20024;-71
2021/06/14 01:39:29;;;;;;;14.13;9.50;;;11.80;94.80;;;;;;2032230;29;20120;-70
2021/06/14 01:40:32;;;;;;;13.73;9.70;;;11.80;94.80;;;;;;2032895;29;20024;-70
2021/06/14 01:41:35;;;;;;;14.82;9.68;;;11.80;94.90;;;;;;2040275;29;20136;-71
2021/06/14 01:42:46;;;;;;;15.43;10.20;;;11.80;95.00;;;;;;2039699;29;20583;-71
2021/06/14 01:43:49;;;;;;;14.65;10.05;;;11.80;95.00;;;;;;2040011;29;20030;-71
2021/06/14 01:44:50;;;;;;;14.55;9.85;;;11.80;95.00;;;;;;2023601;29;20032;-70
2021/06/14 01:45:55;;;;;;;15.13;10.02;;;11.70;95.00;;;;;;2024163;29;20030;-71
2021/06/14 01:47:01;;;;;;;15.32;9.90;;;11.70;95.10;;;;;;2039744;29;20117;-71
2021/06/14 01:48:03;;;;;;;15.27;10.25;;;11.70;95.20;;;;;;2039821;29;20032;-71
2021/06/14 01:49:07;;;;;;;14.32;10.10;;;11.70;95.30;;;;;;2024117;29;20025;-69
2021/06/14 01:50:09;;;;;;;14.02;9.07;;;11.70;95.30;;;;;;2024851;29;20064;-71
2021/06/14 01:51:11;;;;;;;15.48;9.50;;;11.70;95.30;;;;;;2031818;29;20665;-71
2021/06/14 01:52:12;;;;;;;14.43;9.55;;;11.70;95.30;;;;;;2032205;29;20039;-71
2021/06/14 01:53:14;;;;;;;14.20;9.60;;;11.70;95.30;;;;;;2039846;29;20111;-70
2021/06/14 01:54:16;;;;;;;15.80;10.00;;;11.70;95.30;;;;;;2039657;29;20023;-74
2021/06/14 01:55:26;;;;;;;17.33;10.07;;;11.70;95.40;;;;;;2039875;29;20039;-69
2021/06/14 01:56:49;;;;;;;14.63;10.32;;;11.70;95.40;;;;;;2032266;29;20077;-71
2021/06/14 01:57:52;;;;;;;14.70;10.25;;;11.60;95.40;;;;;;2025607;29;20031;-70
2021/06/14 01:58:59;;;;;;;15.38;9.70;;;11.60;95.50;;;;;;2024454;29;20066;-69
2021/06/14 02:00:07;;;;;;;14.63;9.65;;;11.60;95.60;;;;;;2032616;29;20036;-71
2021/06/14 02:01:26;;;;;;;14.88;9.90;;;11.60;95.50;;;;;;2031831;29;20024;-71
2021/06/14 02:02:29;;;;;;;14.18;9.73;;;11.60;95.60;;;;;;2032172;29;20028;-71
2021/06/14 02:03:35;;;;;;;14.15;10.00;;;11.60;95.60;;;;;;2039580;29;20030;-72
2021/06/14 02:04:48;;;;;;;15.65;10.57;;;11.60;95.60;;;;;;2039189;29;20055;-71
2021/06/14 02:06:00;;;;;;;13.40;9.70;;;11.60;95.60;;;;;;2031665;29;20034;-72
2021/06/14 02:07:02;;;;;;;13.70;9.88;;;11.60;95.70;;;;;;2025133;29;20172;-69
2021/06/14 02:08:06;;;;;;;14.18;9.75;;;11.60;95.80;;;;;;2031793;29;20051;-71
2021/06/14 02:09:14;;;;;;;13.63;9.63;;;11.60;95.70;;;;;;2039422;29;20027;-72
2021/06/14 02:10:17;;;;;;;13.80;9.85;;;11.50;95.80;;;;;;2031623;29;20036;-70
2021/06/14 02:11:19;;;;;;;14.77;9.98;;;11.60;95.90;;;;;;2031896;29;20024;-69
2021/06/14 02:12:25;;;;;;;16.95;10.32;;;11.50;95.90;;;;;;2039975;29;20028;-70
2021/06/14 02:13:26;;;;;;;15.85;9.98;;;11.50;95.90;;;;;;2039370;29;20047;-71
2021/06/14 02:14:32;;;;;;;14.50;10.07;;;11.50;95.90;;;;;;2039283;29;20427;-71
2021/06/14 02:15:34;;;;;;;14.55;10.13;;;11.50;96.00;;;;;;2031543;29;20028;-71
2021/06/14 02:16:38;;;;;;;15.02;10.38;;;11.50;96.00;;;;;;2024057;29;20032;-72
2021/06/14 02:17:40;;;;;;;15.85;10.45;;;11.50;96.00;;;;;;2031855;29;20088;-70
2021/06/14 02:18:42;;;;;;;13.85;9.85;;;11.50;96.10;;;;;;2031204;29;20500;-71
2021/06/14 02:19:48;;;;;;;16.30;10.60;;;11.50;96.10;;;;;;2032466;29;20042;-70
2021/06/14 02:20:51;;;;;;;14.35;10.20;;;11.50;96.20;;;;;;2039469;29;20111;-72
2021/06/14 02:21:53;;;;;;;14.20;10.27;;;11.50;96.20;;;;;;2039463;29;20027;-70
2021/06/14 02:22:55;;;;;;;15.95;10.50;;;11.40;96.10;;;;;;2039453;29;20035;-70
2021/06/14 02:23:56;;;;;;;13.98;10.02;;;11.40;96.20;;;;;;2039393;29;20032;-70
2021/06/14 02:24:57;;;;;;;15.60;10.32;;;11.50;96.20;;;;;;2039041;29;20395;-70
2021/06/14 02:25:57;;;;;;;14.18;10.38;;;11.40;96.50;;;;;;2039646;29;20661;-70
2021/06/14 02:26:59;;;;;;;12.48;10.07;;;11.40;96.20;;;;;;2039255;29;20035;-70
2021/06/14 02:27:59;;;;;;;17.23;11.18;;;11.40;96.20;;;;;;2039237;29;20122;-69
2021/06/14 02:29:03;;;;;;;12.93;9.82;;;11.40;96.30;;;;;;2031382;29;20076;-70
2021/06/14 02:30:10;;;;;;;13.85;9.52;;;11.40;96.40;;;;;;2031716;29;20052;-71
2021/06/14 02:31:12;;;;;;;13.52;9.75;;;11.40;96.40;;;;;;2040070;29;20039;-70
2021/06/14 02:32:13;;;;;;;14.77;10.27;;;11.40;96.40;;;;;;2031573;29;20056;-70
2021/06/14 02:33:15;;;;;;;15.13;9.93;;;11.40;96.40;;;;;;2031533;29;20067;-70
2021/06/14 02:34:36;;;;;;;13.65;9.95;;;11.40;96.30;;;;;;2023328;29;20432;-72
2021/06/14 02:35:40;;;;;;;14.77;10.20;;;11.40;96.20;;;;;;2018378;29;20033;-72
2021/06/14 02:36:43;;;;;;;16.92;10.15;;;11.40;96.30;;;;;;2024765;29;20056;-71
2021/06/14 02:37:52;;;;;;;16.52;9.98;;;11.40;96.30;;;;;;2031119;29;20104;-71
2021/06/14 02:38:58;;;;;;;16.25;9.80;;;11.30;96.40;;;;;;2024487;29;20043;-71
2021/06/14 02:39:59;;;;;;;15.20;10.20;;;11.40;96.30;;;;;;2031526;29;20039;-72
2021/06/14 02:41:01;;;;;;;16.67;10.10;;;11.40;96.30;;;;;;2023512;29;20036;-72
2021/06/14 02:42:04;;;;;;;13.50;9.75;;;11.40;96.30;;;;;;2032301;29;20024;-72
2021/06/14 02:43:07;;;;;;;14.13;9.95;;;11.30;96.30;;;;;;2040124;29;20026;-71
2021/06/14 02:44:09;;;;;;;15.20;10.02;;;11.30;96.30;;;;;;2039595;29;20088;-69
2021/06/14 02:45:23;;;;;;;13.35;9.60;;;11.40;96.20;;;;;;2030995;29;20034;-69
2021/06/14 02:46:24;;;;;;;14.82;9.70;;;11.30;96.20;;;;;;2032530;29;20141;-70
2021/06/14 02:47:26;;;;;;;14.05;9.75;;;11.30;96.30;;;;;;2031275;29;20036;-69
2021/06/14 02:48:27;;;;;;;13.63;10.00;;;11.30;96.30;;;;;;2031303;29;20114;-70
2021/06/14 02:49:29;;;;;;;15.63;10.32;;;11.30;96.30;;;;;;2031263;29;20026;-68
2021/06/14 02:50:33;;;;;;;13.60;9.90;;;11.30;96.30;;;;;;2031691;29;20024;-69
2021/06/14 02:51:35;;;;;;;12.98;10.02;;;11.30;96.30;;;;;;2039896;29;20035;-70
2021/06/14 02:52:41;;;;;;;13.30;9.95;;;11.30;96.40;;;;;;2031453;29;20040;-69
2021/06/14 02:54:03;;;;;;;15.95;10.20;;;11.30;96.40;;;;;;2031755;29;20024;-70
2021/06/14 02:55:14;;;;;;;16.95;10.13;;;11.30;96.40;;;;;;2039068;29;20027;-69
2021/06/14 02:56:18;;;;;;;14.10;10.07;;;11.30;96.40;;;;;;2039747;29;20036;-69
2021/06/14 02:57:20;;;;;;;13.60;10.18;;;11.30;96.50;;;;;;2031609;29;20024;-72
2021/06/14 02:58:27;;;;;;;15.35;10.15;;;11.30;96.50;;;;;;2023790;29;20031;-70
2021/06/14 02:59:31;;;;;;;13.98;9.40;;;11.30;96.50;;;;;;2032515;29;20029;-69
2021/06/14 03:00:32;;;;;;;12.77;9.30;;;11.30;96.50;;;;;;2039435;29;20606;-72
2021/06/14 03:01:38;;;;;;;14.68;9.63;;;11.30;96.50;;;;;;2031495;29;20033;-71
2021/06/14 03:02:42;;;;;;;14.45;9.90;;;11.30;96.40;;;;;;2031902;29;20028;-71
2021/06/14 03:03:43;;;;;;;13.27;9.68;;;11.30;96.40;;;;;;2039496;29;20012;-71
2021/06/14 03:04:48;;;;;;;13.45;9.65;;;11.30;96.30;;;;;;2039602;29;20055;-71
2021/06/14 03:05:49;;;;;;;12.98;9.25;;;11.30;96.30;;;;;;2040098;29;20028;-71
2021/06/14 03:06:53;;;;;;;12.68;9.80;;;11.30;96.30;;;;;;2039385;29;20016;-71
2021/06/14 03:08:00;;;;;;;14.75;9.73;;;11.30;96.20;;;;;;2030376;29;20052;-70
2021/06/14 03:09:06;;;;;;;13.75;9.23;;;11.40;96.30;;;;;;2031411;29;20528;-71
2021/06/14 03:10:09;;;;;;;13.90;9.55;;;11.40;96.20;;;;;;2032580;29;20410;-71
2021/06/14 03:11:10;;;;;;;13.98;9.82;;;11.40;96.20;;;;;;2040565;29;20024;-71
2021/06/14 03:12:12;;;;;;;12.95;9.70;;;11.40;96.20;;;;;;2040603;29;20032;-71
2021/06/14 03:13:14;;;;;;;12.35;8.98;;;11.40;96.20;;;;;;2040561;29;20038;-70
2021/06/14 03:14:16;;;;;;;13.30;9.05;;;11.40;96.20;;;;;;2040342;29;20488;-72
2021/06/14 03:15:18;;;;;;;13.45;9.68;;;11.40;96.20;;;;;;2040805;29;20055;-71
2021/06/14 03:16:22;;;;;;;14.27;9.30;;;11.40;96.20;;;;;;2040587;29;20122;-70
2021/06/14 03:17:23;;;;;;;13.95;9.43;;;11.40;96.10;;;;;;2032605;29;20659;-70
2021/06/14 03:18:25;;;;;;;12.18;9.10;;;11.50;96.20;;;;;;2032542;29;20485;-70
2021/06/14 03:19:28;;;;;;;12.15;8.90;;;11.50;96.10;;;;;;2040306;29;20034;-69
2021/06/14 03:20:39;;;;;;;14.25;9.80;;;11.50;96.10;;;;;;2032581;29;20032;-70
2021/06/14 03:21:42;;;;;;;13.35;9.43;;;11.50;96.00;;;;;;2025317;29;20423;-70
2021/06/14 03:22:48;;;;;;;14.43;10.07;;;11.50;95.90;;;;;;2025323;29;20055;-70
2021/06/14 03:23:51;;;;;;;13.98;9.35;;;11.50;96.00;;;;;;2025772;29;20036;-70
2021/06/14 03:24:53;;;;;;;15.10;9.23;;;11.60;95.90;;;;;;2025146;29;20029;-69
2021/06/14 03:25:54;;;;;;;13.20;8.85;;;11.60;95.80;;;;;;2024843;29;20025;-70
2021/06/14 03:26:59;;;;;;;14.20;9.30;;;11.60;95.80;;;;;;2033049;29;20028;-69
2021/06/14 03:28:02;;;;;;;14.05;9.32;;;11.60;95.80;;;;;;2040477;29;20126;-71
2021/06/14 03:29:04;;;;;;;12.60;9.18;;;11.60;95.70;;;;;;2032841;29;20072;-71
2021/06/14 03:30:06;;;;;;;13.90;9.60;;;11.70;95.70;;;;;;2025132;29;20028;-71
2021/06/14 03:31:07;;;;;;;13.95;9.45;;;11.70;95.60;;;;;;2032950;29;20425;-71
2021/06/14 03:32:12;;;;;;;13.98;9.50;;;11.70;95.60;;;;;;2040555;29;20144;-72
2021/06/14 03:33:17;;;;;;;13.50;9.35;;;11.70;95.50;;;;;;2040512;29;20023;-71
2021/06/14 03:34:20;;;;;;;12.77;9.10;;;11.70;95.50;;;;;;2040906;29;20019;-71
2021/06/14 03:35:22;;;;;;;13.60;9.45;;;11.80;95.40;;;;;;2040921;29;20036;-71
2021/06/14 03:36:29;;;;;;;14.05;9.20;;;11.80;95.30;;;;;;2041223;29;20035;-72
2021/06/14 03:37:33;;;;;;;16.38;9.18;;;11.80;95.20;;;;;;2040534;29;20036;-70
2021/06/14 03:38:34;;;;;;;13.55;9.13;;;11.80;95.30;;;;;;2040733;29;20024;-71
2021/06/14 03:39:35;;;;;;;13.57;9.05;;;11.80;95.10;;;;;;2041116;29;20039;-70
2021/06/14 03:40:36;;;;;;;13.55;9.02;;;11.90;95.10;;;;;;2041171;29;20031;-70
2021/06/14 03:41:47;;;;;;;13.50;9.23;;;11.90;95.10;;;;;;2041009;29;20039;-70
2021/06/14 03:42:48;;;;;;;11.43;8.88;;;11.90;95.10;;;;;;2041072;29;20395;-69
2021/06/14 03:43:49;;;;;;;12.57;9.10;;;11.90;95.00;;;;;;2040311;29;20031;-71
2021/06/14 03:44:50;;;;;;;11.85;8.75;;;12.00;94.90;;;;;;2040063;29;20036;-69
2021/06/14 03:45:51;;;;;;;12.63;8.80;;;12.00;94.90;;;;;;2040908;29;20066;-70
2021/06/14 03:46:51;;;;;;;13.07;9.25;;;12.00;94.80;;;;;;2040912;29;20028;-70
2021/06/14 03:47:52;;;;;;;14.10;8.55;;;12.00;94.70;;;;;;2040290;29;20764;-69
2021/06/14 03:48:52;;;;;;;13.95;9.02;;;12.00;94.60;;;;;;2032490;29;20032;-69
2021/06/14 03:49:53;;;;;;;13.80;9.10;;;12.10;94.50;;;;;;2032420;29;20103;-69
2021/06/14 03:50:54;;;;;;;14.43;9.23;;;12.10;94.50;;;;;;2032315;29;20028;-69
2021/06/14 03:51:55;;;;;;;13.57;9.10;;;12.10;94.30;;;;;;2040357;29;20083;-71
2021/06/14 03:52:56;;;;;;;14.50;8.50;;;12.20;94.30;;;;;;2040434;29;20039;-70
2021/06/14 03:53:56;;;;;;;13.90;9.35;;;12.20;94.30;;;;;;2040329;29;20032;-71
2021/06/14 03:54:57;;;;;;;12.02;8.48;;;12.20;94.20;;;;;;2040108;29;20439;-70
2021/06/14 03:56:07;;;;;;;10.38;8.30;;;12.20;94.10;;;;;;2040615;29;20063;-71
2021/06/14 03:57:08;;;;;;;12.45;8.85;;;12.30;94.00;;;;;;2041050;29;20035;-71
2021/06/14 03:58:08;;;;;;;13.25;8.80;;;12.30;93.60;;;;;;2040463;29;20694;-70
2021/06/14 03:59:09;;;;;;;13.80;8.82;;;12.30;93.60;;;;;;2040355;29;20032;-69
2021/06/14 04:00:12;;;;;;;13.95;9.05;;;12.30;93.30;;;;;;2040911;29;20036;-71
2021/06/14 04:01:17;;;;;;;15.55;9.00;;;12.40;93.30;;;;;;2041061;29;20059;-69
2021/06/14 04:02:18;;;;;;;11.90;8.13;;;12.50;93.30;;;;;;2041051;29;20068;-70
2021/06/14 04:03:19;;;;;;;13.70;8.40;;;12.80;93.40;;;;;;2041479;29;20055;-70
2021/06/14 04:05:37;;;;;;;10.18;7.10;;;13.50;92.10;;;;;;2032104;29;20107;-69
2021/06/14 04:06:55;;;;;;;12.40;7.55;;;14.10;90.80;;;;;;2034646;29;20031;-70
2021/06/14 04:07:56;;;;;;;11.95;7.38;;;14.60;87.80;;;;;;2040172;29;20035;-70
2021/06/14 04:08:57;;;;;;;12.10;6.93;;;15.00;86.60;;;;;;2032385;29;20123;-71
2021/06/14 04:10:00;;;;;;;10.70;7.00;;;15.40;83.70;;;;;;2033104;29;20024;-70
2021/06/14 04:11:01;;;;;;;11.07;6.90;;;15.80;81.20;;;;;;2040268;29;20544;-70
2021/06/14 04:12:03;;;;;;;13.90;7.57;;;16.20;79.30;;;;;;2040331;29;20087;-69
2021/06/14 04:13:06;;;;;;;12.23;6.65;;;16.40;76.30;;;;;;2040783;29;20031;-70
2021/06/14 04:14:07;;;;;;;10.43;6.75;;;16.70;74.90;;;;;;2032267;29;20028;-70
2021/06/14 04:15:08;;;;;;;11.63;6.30;;;17.00;73.80;;;;;;2032058;29;20552;-70
2021/06/14 04:16:08;;;;;;;13.38;7.07;;;17.20;72.40;;;;;;2040702;29;20030;-70
2021/06/14 04:17:12;;;;;;;11.30;6.43;;;17.50;70.90;;;;;;2041121;29;20031;-71
2021/06/14 04:18:15;;;;;;;10.05;6.53;;;17.70;69.40;;;;;;2033031;29;20036;-71
2021/06/14 04:19:16;;;;;;;14.00;6.90;;;18.00;68.40;;;;;;2025051;29;20074;-72
2021/06/14 04:20:17;;;;;;;11.65;6.70;;;18.20;66.90;;;;;;2032536;29;20032;-72
2021/06/14 04:21:18;;;;;;;9.65;6.50;;;18.40;65.50;;;;;;2031873;29;20556;-72
2021/06/14 04:22:19;;;;;;;9.02;6.70;;;18.50;64.80;;;;;;2032342;29;20024;-71
2021/06/14 04:23:19;;;;;;;11.00;6.70;;;18.60;64.00;;;;;;2040860;29;20507;-71
2021/06/14 04:24:20;;;;;;;9.50;5.95;;;18.70;63.00;;;;;;2040983;29;20051;-71
2021/06/14 04:25:21;;;;;;;15.27;6.93;;;18.80;62.60;;;;;;2040718;29;20483;-70
2021/06/14 04:26:25;;;;;;;10.15;6.50;;;19.00;62.10;;;;;;2040664;29;20527;-70
2021/06/14 04:27:25;;;;;;;8.50;6.20;;;19.10;61.80;;;;;;2040200;29;20043;-70
2021/06/14 04:28:26;;;;;;;8.05;6.53;;;19.20;61.10;;;;;;2032047;29;20087;-70
2021/06/14 04:29:27;;;;;;;12.20;7.20;;;19.40;60.60;;;;;;2032636;29;20052;-70
2021/06/14 04:30:28;;;;;;;9.02;6.50;;;19.50;60.00;;;;;;2040419;29;20028;-71
2021/06/14 04:31:29;;;;;;;8.75;6.03;;;19.60;59.50;;;;;;2024707;29;20024;-71
2021/06/14 04:32:30;;;;;;;8.30;6.00;;;19.80;59.30;;;;;;2016890;29;20108;-70
2021/06/14 04:33:33;;;;;;;7.90;5.50;;;19.80;58.80;;;;;;2032364;29;20036;-70
2021/06/14 04:34:34;;;;;;;10.48;5.82;;;20.00;58.60;;;;;;2024130;29;20021;-69
2021/06/14 04:35:35;;;;;;;9.73;5.82;;;20.10;58.10;;;;;;2024541;29;20052;-71
2021/06/14 04:36:36;;;;;;;8.50;5.70;;;20.30;57.70;;;;;;2040425;29;20046;-70
2021/06/14 04:37:37;;;;;;;8.88;5.50;;;20.40;57.10;;;;;;2040308;29;20023;-70
2021/06/14 04:38:38;;;;;;;11.05;6.13;;;20.50;56.80;;;;;;2032709;29;20016;-72
2021/06/14 04:39:39;;;;;;;9.82;5.65;;;20.60;56.70;;;;;;2033483;29;20088;-72
2021/06/14 04:40:40;;;;;;;8.32;5.57;;;20.70;56.30;;;;;;2040730;29;20026;-72
2021/06/14 04:41:41;;;;;;;9.43;6.10;;;20.80;55.80;;;;;;2040634;29;20032;-71
2021/06/14 04:42:42;;;;;;;8.05;5.75;;;20.80;55.60;;;;;;2040574;29;20028;-71
2021/06/14 04:43:42;;;;;;;9.73;6.43;;;20.90;55.60;;;;;;2041013;29;20032;-71
2021/06/14 04:44:43;;;;;;;8.13;6.00;;;20.90;55.30;;;;;;2039867;29;20027;-70
2021/06/14 04:45:43;;;;;;;9.60;6.38;;;21.00;55.00;;;;;;2039956;29;20027;-71
2021/06/14 04:46:44;;;;;;;8.07;5.72;;;21.10;54.50;;;;;;2039947;29;20055;-72
2021/06/14 04:47:47;;;;;;;10.68;6.38;;;21.10;54.50;;;;;;2039873;29;20031;-72
2021/06/14 04:48:48;;;;;;;8.32;5.80;;;21.20;54.50;;;;;;2040219;29;20031;-72
2021/06/14 04:49:49;;;;;;;7.07;5.70;;;21.20;54.30;;;;;;2040000;29;20098;-71
2021/06/14 04:50:50;;;;;;;8.63;5.88;;;21.30;54.10;;;;;;2032360;29;20059;-73
2021/06/14 04:51:52;;;;;;;7.80;5.32;;;21.40;53.80;;;;;;2041078;29;20023;-70
2021/06/14 04:52:53;;;;;;;8.45;5.65;;;21.60;53.60;;;;;;2040785;29;20070;-70
2021/06/14 04:53:54;;;;;;;9.27;5.97;;;21.70;52.90;;;;;;2041057;29;20087;-71
2021/06/14 04:54:56;;;;;;;8.57;5.40;;;21.80;52.70;;;;;;2040079;29;20023;-70
2021/06/14 04:55:56;;;;;;;9.30;6.10;;;21.80;52.40;;;;;;2040088;29;20511;-70
2021/06/14 04:56:57;;;;;;;9.15;5.93;;;21.90;52.10;;;;;;2048157;29;20034;-73
2021/06/14 04:57:57;;;;;;;9.23;5.97;;;21.90;52.10;;;;;;2048302;29;20471;-70
2021/06/14 04:58:58;;;;;;;9.98;5.65;;;22.00;51.90;;;;;;2040947;29;20122;-70
2021/06/14 04:59:59;;;;;;;7.00;5.30;;;22.00;51.90;;;;;;2040234;29;20039;-70
2021/06/14 05:00:59;;;;;;;9.75;5.85;;;22.00;51.40;;;;;;2039948;29;20645;-70
2021/06/14 05:02:00;;;;;;;8.77;5.75;;;22.10;51.30;;;;;;2040716;29;20071;-71
2021/06/14 05:03:01;;;;;;;10.40;5.82;;;22.20;51.30;;;;;;2040637;29;20082;-70
2021/06/14 05:04:02;;;;;;;8.75;5.50;;;22.20;51.00;;;;;;2040456;29;20039;-71
2021/06/14 05:05:05;;;;;;;9.43;5.70;;;22.30;50.90;;;;;;2040960;29;20040;-70
2021/06/14 05:06:05;;;;;;;8.25;5.65;;;22.30;50.80;;;;;;2035101;29;20091;-70
2021/06/14 05:07:06;;;;;;;9.63;6.10;;;22.30;50.80;;;;;;2042186;29;20044;-70
2021/06/14 05:08:07;;;;;;;9.95;5.70;;;22.30;50.70;;;;;;2043458;29;20028;-71
2021/06/14 05:09:07;;;;;;;8.85;5.70;;;22.30;50.40;;;;;;2041727;29;20608;-71
2021/06/14 05:10:08;;;;;;;8.00;5.47;;;22.30;50.20;;;;;;2040795;29;20118;-71
2021/06/14 05:11:09;;;;;;;8.05;5.13;;;22.20;50.20;;;;;;2041708;29;20032;-71
2021/06/14 05:12:10;;;;;;;9.65;7.72;;;22.20;50.30;;;;;;2040864;29;20062;-69
2021/06/14 05:13:11;;;;;;;9.18;6.38;;;22.30;50.50;;;;;;2040702;29;20035;-70
2021/06/14 05:14:11;;;;;;;8.48;5.90;;;22.50;50.20;;;;;;2040338;29;20487;-70
2021/06/14 05:15:12;;;;;;;10.73;5.80;;;22.60;49.90;;;;;;2039444;29;20035;-69
2021/06/14 05:16:13;;;;;;;8.52;5.38;;;22.60;49.60;;;;;;2040292;29;20159;-72
2021/06/14 05:17:16;;;;;;;7.32;5.57;;;22.70;49.60;;;;;;2041013;29;20558;-71
2021/06/14 05:18:17;;;;;;;9.38;6.32;;;22.70;49.40;;;;;;2040464;29;20031;-71
2021/06/14 05:19:18;;;;;;;10.77;5.93;;;22.70;48.90;;;;;;2040454;29;20054;-72
2021/06/14 05:20:19;;;;;;;9.70;5.50;;;22.70;49.30;;;;;;2039694;29;20071;-71
2021/06/14 05:21:19;;;;;;;8.07;5.30;;;22.70;49.30;;;;;;2039719;29;20034;-71
2021/06/14 05:22:20;;;;;;;8.45;5.32;;;22.70;49.40;;;;;;2040376;29;20023;-71
2021/06/14 05:23:21;;;;;;;9.68;5.35;;;22.70;49.20;;;;;;2040368;29;20032;-72
2021/06/14 05:24:21;;;;;;;9.65;5.50;;;22.80;49.00;;;;;;2040191;29;20110;-71
2021/06/14 05:25:22;;;;;;;7.55;5.35;;;22.80;49.00;;;;;;2039939;29;20466;-71
2021/06/14 05:26:23;;;;;;;8.95;4.97;;;22.90;48.80;;;;;;2041368;29;20020;-72